createdAt,value
2018-09-25T00:01:33.316Z,8.20
2018-09-25T00:04:07.195Z,7.90
2018-09-25T00:06:41.009Z,7.90
2018-09-25T00:09:15.186Z,7.90
2018-09-25T00:11:49.249Z,7.90
2018-09-25T00:14:23.310Z,7.90
2018-09-25T00:16:57.254Z,7.90
2018-09-25T00:19:31.080Z,8.20
2018-09-25T00:22:04.890Z,8.10
2018-09-25T00:24:38.787Z,8.00
2018-09-25T00:27:12.680Z,8.10
2018-09-25T00:29:46.596Z,8.20
2018-09-25T00:32:20.568Z,7.90
2018-09-25T00:34:54.514Z,8.10
2018-09-25T00:37:29.192Z,8.20
2018-09-25T00:40:03.182Z,8.10
2018-09-25T00:42:37.014Z,8.30
2018-09-25T00:45:10.959Z,8.60
2018-09-25T00:47:45.461Z,8.30
2018-09-25T00:50:19.162Z,8.50
2018-09-25T00:52:53.471Z,8.40
2018-09-25T00:55:27.321Z,8.60
2018-09-25T00:58:01.180Z,8.20
2018-09-25T01:00:35.024Z,8.10
2018-09-25T01:03:08.912Z,8.00
2018-09-25T01:05:42.807Z,8.10
2018-09-25T01:08:16.629Z,8.40
2018-09-25T01:10:50.390Z,8.60
2018-09-25T01:13:24.710Z,8.10
2018-09-25T01:15:58.753Z,8.30
2018-09-25T01:18:32.494Z,8.40
2018-09-25T01:21:06.485Z,7.70
2018-09-25T01:23:40.440Z,7.60
2018-09-25T01:26:14.512Z,7.50
2018-09-25T01:28:48.310Z,7.30
2018-09-25T01:31:22.230Z,7.20
2018-09-25T01:33:56.227Z,7.60
2018-09-25T01:36:30.171Z,8.00
2018-09-25T01:39:04.068Z,8.10
2018-09-25T01:41:37.768Z,7.80
2018-09-25T01:44:11.611Z,7.80
2018-09-25T01:46:45.461Z,7.50
2018-09-25T01:49:19.326Z,7.40
2018-09-25T01:51:53.097Z,7.30
2018-09-25T01:54:27.093Z,6.90
2018-09-25T01:57:00.994Z,6.70
2018-09-25T01:59:34.846Z,6.70
2018-09-25T02:02:08.653Z,7.00
2018-09-25T02:04:42.538Z,7.00
2018-09-25T02:07:16.486Z,7.00
2018-09-25T02:09:50.441Z,7.30
2018-09-25T02:12:24.534Z,7.20
2018-09-25T02:14:58.824Z,7.30
2018-09-25T02:17:32.734Z,7.40
2018-09-25T02:20:06.663Z,7.50
2018-09-25T02:22:40.570Z,7.50
2018-09-25T02:25:14.525Z,7.60
2018-09-25T02:27:48.456Z,7.80
2018-09-25T02:30:22.299Z,7.50
2018-09-25T02:32:56.093Z,7.50
2018-09-25T02:35:30.223Z,7.50
2018-09-25T02:38:04.107Z,7.70
2018-09-25T02:40:38.070Z,7.50
2018-09-25T02:43:12.233Z,7.50
2018-09-25T02:45:46.266Z,8.00
2018-09-25T02:48:20.017Z,8.10
2018-09-25T02:50:53.828Z,7.90
2018-09-25T02:53:27.806Z,7.90
2018-09-25T02:56:01.738Z,7.60
2018-09-25T02:58:35.781Z,7.50
2018-09-25T03:01:09.792Z,7.50
2018-09-25T03:03:43.689Z,7.50
2018-09-25T03:06:17.606Z,7.60
2018-09-25T03:08:51.551Z,7.60
2018-09-25T03:11:25.504Z,7.90
2018-09-25T03:13:59.406Z,7.80
2018-09-25T03:16:33.297Z,7.70
2018-09-25T03:19:07.154Z,7.60
2018-09-25T03:21:40.900Z,7.90
2018-09-25T03:24:14.868Z,7.90
2018-09-25T03:26:48.753Z,7.60
2018-09-25T03:29:22.639Z,7.60
2018-09-25T03:31:56.584Z,7.80
2018-09-25T03:34:30.494Z,8.00
2018-09-25T03:37:04.538Z,8.60
2018-09-25T03:39:38.339Z,8.20
2018-09-25T03:42:12.261Z,8.10
2018-09-25T03:44:46.102Z,8.50
2018-09-25T03:47:20.029Z,8.20
2018-09-25T03:49:53.953Z,8.90
2018-09-25T03:52:27.772Z,9.10
2018-09-25T03:55:01.596Z,8.80
2018-09-25T03:57:35.518Z,8.70
2018-09-25T04:00:09.317Z,8.80
2018-09-25T04:02:43.227Z,8.70
2018-09-25T04:05:17.209Z,9.20
2018-09-25T04:07:51.194Z,9.00
2018-09-25T04:10:25.002Z,9.00
2018-09-25T04:12:58.969Z,8.70
2018-09-25T04:15:32.944Z,8.80
2018-09-25T04:18:07.076Z,8.70
2018-09-25T04:20:41.004Z,8.90
2018-09-25T04:23:14.845Z,9.10
2018-09-25T04:25:48.735Z,8.80
2018-09-25T04:28:22.590Z,8.60
2018-09-25T04:30:56.795Z,8.70
2018-09-25T04:33:31.040Z,9.00
2018-09-25T04:36:05.008Z,9.20
2018-09-25T04:38:39.107Z,9.50
2018-09-25T04:41:13.179Z,9.20
2018-09-25T04:43:47.183Z,8.80
2018-09-25T04:46:21.340Z,8.70
2018-09-25T04:48:55.565Z,8.80
2018-09-25T04:51:29.474Z,8.70
2018-09-25T04:54:03.511Z,8.70
2018-09-25T04:56:37.597Z,8.90
2018-09-25T04:59:12.285Z,9.10
2018-09-25T05:01:46.254Z,9.00
2018-09-25T05:04:20.695Z,9.00
2018-09-25T05:06:54.781Z,8.70
2018-09-25T05:09:28.680Z,8.90
2018-09-25T05:12:02.622Z,9.10
2018-09-25T05:14:37.131Z,9.10
2018-09-25T05:17:11.077Z,8.70
2018-09-25T05:19:45.469Z,9.10
2018-09-25T05:22:19.721Z,9.50
2018-09-25T05:24:53.630Z,9.00
2018-09-25T05:27:27.795Z,9.20
2018-09-25T05:30:01.828Z,9.20
2018-09-25T05:32:35.676Z,9.40
2018-09-25T05:35:09.536Z,9.10
2018-09-25T05:37:44.006Z,9.50
2018-09-25T05:40:18.097Z,9.50
2018-09-25T05:42:51.943Z,8.90
2018-09-25T05:45:26.122Z,8.90
2018-09-25T05:48:00.251Z,8.80
2018-09-25T05:50:34.305Z,8.70
2018-09-25T05:53:08.124Z,8.70
2018-09-25T05:55:42.117Z,8.90
2018-09-25T05:58:16.006Z,8.80
2018-09-25T06:00:50.133Z,8.80
2018-09-25T06:03:23.968Z,8.70
2018-09-25T06:05:57.820Z,8.80
2018-09-25T06:08:31.747Z,9.20
2018-09-25T06:11:05.608Z,9.60
2018-09-25T06:13:39.518Z,9.30
2018-09-25T06:16:13.465Z,9.10
2018-09-25T14:50:09.613Z,16.40
2018-09-25T14:52:43.563Z,16.40
2018-09-25T14:55:17.292Z,16.30
2018-09-25T14:57:51.060Z,16.10
2018-09-25T15:00:25.029Z,16.10
2018-09-25T15:02:58.880Z,16.00
2018-09-25T15:05:32.540Z,15.90
2018-09-25T15:08:06.476Z,15.80
2018-09-25T15:10:40.517Z,15.70
2018-09-25T15:13:14.464Z,15.70
2018-09-25T15:15:48.411Z,15.60
2018-09-25T15:18:22.035Z,15.60
2018-09-25T15:20:55.753Z,15.80
2018-09-25T15:23:29.657Z,15.70
2018-09-25T15:26:03.601Z,15.50
2018-09-25T15:28:37.533Z,15.70
2018-09-25T15:31:12.078Z,15.40
2018-09-25T15:33:45.988Z,15.20
2018-09-25T15:36:19.757Z,15.20
2018-09-25T15:38:53.542Z,15.00
2018-09-25T15:41:27.326Z,14.90
2018-09-25T15:44:01.220Z,14.70
2018-09-25T15:46:34.962Z,14.60
2018-09-25T15:49:08.901Z,14.50
2018-09-25T15:51:42.874Z,14.40
2018-09-25T15:54:16.768Z,14.60
2018-09-25T15:56:50.648Z,14.30
2018-09-25T15:59:24.307Z,14.30
2018-09-25T16:01:58.206Z,14.30
2018-09-25T16:04:32.090Z,14.10
2018-09-25T16:07:05.963Z,14.20
2018-09-25T16:09:39.896Z,14.20
2018-09-25T16:12:13.913Z,14.20
2018-09-25T16:14:47.698Z,14.30
2018-09-25T16:17:21.492Z,14.40
2018-09-25T16:31:26.073Z,14.50
2018-09-25T16:34:00.953Z,14.30
2018-09-25T16:36:34.773Z,14.30
2018-09-25T16:39:08.528Z,14.50
2018-09-25T16:41:42.449Z,14.70
2018-09-25T16:44:16.211Z,14.50
2018-09-25T16:46:50.011Z,14.30
2018-09-25T16:49:23.917Z,14.20
2018-09-25T16:51:58.094Z,14.20
2018-09-25T16:54:31.943Z,14.30
2018-09-25T16:57:05.730Z,14.10
2018-09-25T16:59:39.518Z,14.00
2018-09-25T17:02:13.587Z,13.90
2018-09-25T17:04:47.490Z,13.80
2018-09-25T17:07:21.253Z,13.70
2018-09-25T17:09:55.217Z,13.60
2018-09-25T17:12:29.584Z,13.50
2018-09-25T17:15:03.319Z,13.40
2018-09-25T17:17:37.148Z,13.50
2018-09-25T17:20:11.185Z,13.30
2018-09-25T17:22:44.954Z,13.50
2018-09-25T17:25:18.729Z,13.40
2018-09-25T17:27:52.639Z,13.20
2018-09-25T17:30:26.478Z,13.10
2018-09-25T17:33:00.363Z,13.00
2018-09-25T17:35:34.153Z,13.10
2018-09-25T17:38:07.934Z,12.90
2018-09-25T17:40:41.879Z,12.80
2018-09-25T17:43:15.836Z,12.80
2018-09-25T18:22:57.428Z,11.90
2018-09-25T18:25:31.331Z,11.90
2018-09-25T18:28:05.342Z,12.00
2018-09-25T18:30:39.041Z,11.80
2018-09-25T18:33:12.916Z,11.70
2018-09-25T18:35:47.029Z,11.70
2018-09-25T18:38:20.867Z,11.60
2018-09-25T18:40:54.728Z,11.60
2018-09-25T18:43:28.542Z,11.60
2018-09-25T18:46:02.442Z,11.90
2018-09-25T18:48:36.342Z,11.90
2018-09-25T18:51:10.269Z,11.90
2018-09-25T18:53:44.029Z,11.90
2018-09-25T18:56:17.928Z,11.80
2018-09-25T18:58:51.749Z,11.80
2018-09-25T19:01:25.711Z,11.80
2018-09-25T19:03:59.619Z,11.40
2018-09-25T19:06:33.629Z,11.40
2018-09-25T19:09:07.457Z,11.40
2018-09-25T19:11:41.332Z,11.30
2018-09-25T19:14:15.247Z,11.30
2018-09-25T19:16:49.222Z,11.20
2018-09-25T19:19:23.086Z,11.20
2018-09-25T19:21:56.942Z,11.20
2018-09-25T19:24:31.074Z,11.10
2018-09-25T19:27:05.013Z,11.10
2018-09-25T19:29:38.871Z,11.10
2018-09-25T19:32:12.864Z,11.10
2018-09-25T19:39:57.896Z,11.00
2018-09-25T19:42:31.660Z,11.00
2018-09-25T19:45:05.446Z,10.80
2018-09-25T19:47:39.271Z,10.90
2018-09-25T19:50:13.193Z,11.20
2018-09-25T19:52:47.033Z,11.10
2018-09-25T19:55:20.919Z,10.70
2018-09-25T19:57:54.824Z,10.80
2018-09-25T20:00:28.773Z,10.80
2018-09-25T20:03:02.630Z,10.70
2018-09-25T20:05:36.626Z,10.70
2018-09-25T20:08:10.431Z,10.70
2018-09-25T20:10:44.309Z,10.70
2018-09-25T20:13:18.051Z,10.80
2018-09-25T20:15:52.028Z,10.70
2018-09-25T20:18:26.179Z,10.80
2018-09-25T20:21:00.139Z,10.60
2018-09-25T20:23:34.174Z,10.70
2018-09-25T20:26:08.094Z,10.50
2018-09-25T20:28:42.666Z,10.80
2018-09-25T20:31:16.472Z,10.70
2018-09-25T20:33:50.577Z,10.60
2018-09-25T20:36:24.313Z,10.60
2018-09-25T20:38:58.222Z,10.50
2018-09-25T20:41:32.079Z,10.50
2018-09-25T20:44:06.710Z,10.50
2018-09-25T20:46:40.515Z,10.50
2018-09-25T20:49:14.641Z,10.60
2018-09-25T20:51:48.352Z,10.60
2018-09-25T20:54:22.189Z,10.60
2018-09-25T20:56:55.979Z,10.30
2018-09-25T20:59:30.066Z,10.50
2018-09-25T21:02:04.094Z,10.20
2018-09-25T21:04:37.832Z,10.20
2018-09-25T21:07:12.990Z,10.40
2018-09-25T21:09:54.704Z,10.20
2018-09-25T21:12:29.970Z,10.40
2018-09-25T21:15:03.910Z,10.10
2018-09-25T21:17:37.824Z,10.20
2018-09-25T21:20:11.748Z,10.10
2018-09-25T21:22:45.628Z,10.10
2018-09-25T21:25:19.326Z,10.10
2018-09-25T21:27:53.104Z,10.00
2018-09-25T21:30:26.884Z,10.10
2018-09-25T21:33:00.574Z,10.10
2018-09-25T21:35:34.457Z,10.20
2018-09-25T21:38:08.696Z,10.20
2018-09-25T21:40:42.850Z,9.90
2018-09-25T21:43:16.718Z,10.20
2018-09-25T21:45:50.382Z,10.00
2018-09-25T21:48:24.221Z,10.00
2018-09-25T21:50:58.126Z,10.00
2018-09-25T21:53:33.307Z,9.90
2018-09-25T21:56:06.989Z,10.20
2018-09-25T21:58:40.887Z,9.90
2018-09-25T22:01:14.979Z,9.80
2018-09-25T22:03:48.824Z,9.80
2018-09-25T22:06:22.970Z,9.90
2018-09-25T22:08:57.120Z,10.10
2018-09-25T22:11:30.966Z,9.70
2018-09-25T22:14:04.721Z,9.80
2018-09-25T22:16:38.466Z,10.20
2018-09-25T22:19:12.541Z,9.80
2018-09-25T22:21:46.591Z,9.90
2018-09-25T22:24:20.349Z,9.80
2018-09-25T22:26:54.273Z,9.60
2018-09-25T22:29:28.103Z,9.80
2018-09-25T22:32:01.987Z,10.00
2018-09-25T22:34:35.774Z,9.90
2018-09-25T22:37:09.637Z,9.90
2018-09-25T22:39:43.404Z,9.80
2018-09-25T22:42:17.285Z,9.90
2018-09-25T22:44:51.181Z,9.80
2018-09-25T22:47:25.015Z,9.80
2018-09-25T22:49:58.893Z,9.60
2018-09-25T22:52:32.695Z,9.80
2018-09-25T22:55:06.611Z,9.80
2018-09-25T22:57:40.519Z,10.10
2018-09-25T23:00:14.497Z,9.70
2018-09-25T23:02:49.093Z,9.70
2018-09-25T23:05:23.015Z,9.90
2018-09-25T23:07:56.851Z,9.80
2018-09-25T23:10:30.707Z,9.90
2018-09-25T23:13:05.539Z,9.80
2018-09-25T23:15:39.940Z,9.80
2018-09-25T23:18:13.672Z,9.70
2018-09-25T23:20:47.590Z,9.80
2018-09-25T23:23:21.766Z,9.60
2018-09-25T23:25:55.548Z,9.90
2018-09-25T23:28:29.372Z,9.80
2018-09-25T23:31:03.516Z,9.80
2018-09-25T23:33:38.208Z,9.80
2018-09-25T23:36:12.168Z,9.80
2018-09-25T23:38:46.038Z,9.70
2018-09-25T23:41:20.480Z,9.50
2018-09-25T23:43:54.354Z,9.80
2018-09-25T23:46:28.350Z,9.80
2018-09-25T23:49:03.034Z,9.40
2018-09-25T23:51:37.011Z,9.50
2018-09-25T23:56:17.822Z,9.80
2018-09-25T23:58:49.444Z,9.40
